createdAt,value
2022-10-15T00:02:05.083Z,12.59
2022-10-15T00:04:53.375Z,12.54
2022-10-15T00:07:42.334Z,12.48
2022-10-15T00:10:30.735Z,12.39
2022-10-15T00:13:20.454Z,12.36
2022-10-15T00:16:09.748Z,12.34
2022-10-15T00:18:58.824Z,12.38
2022-10-15T00:21:47.088Z,12.34
2022-10-15T00:24:35.374Z,12.34
2022-10-15T00:27:23.888Z,12.44
2022-10-15T00:30:14.612Z,12.42
2022-10-15T00:33:02.943Z,12.30
2022-10-15T00:35:59.136Z,12.24
2022-10-15T00:38:47.897Z,12.25
2022-10-15T00:41:37.790Z,12.16
2022-10-15T00:44:59.203Z,12.15
2022-10-15T00:47:49.634Z,12.12
2022-10-15T00:50:38.123Z,12.03
2022-10-15T00:53:26.435Z,12.00
2022-10-15T00:56:15.073Z,12.09
2022-10-15T00:59:03.467Z,12.04
2022-10-15T01:01:51.943Z,12.07
2022-10-15T01:04:42.510Z,12.09
2022-10-15T01:07:30.801Z,11.97
2022-10-15T01:10:19.708Z,11.92
2022-10-15T01:13:12.833Z,11.83
2022-10-15T01:16:06.223Z,11.82
2022-10-15T01:18:57.846Z,11.84
2022-10-15T01:21:52.895Z,11.83
2022-10-15T01:25:03.334Z,11.77
2022-10-15T01:27:54.780Z,11.79
2022-10-15T01:30:46.457Z,11.79
2022-10-15T01:33:37.261Z,11.85
2022-10-15T01:36:29.255Z,11.82
2022-10-15T01:39:21.334Z,11.87
2022-10-15T01:42:14.075Z,11.91
2022-10-15T01:45:04.463Z,11.91
2022-10-15T01:47:55.935Z,11.89
2022-10-15T01:50:46.677Z,11.93
2022-10-15T01:53:36.258Z,11.95
2022-10-15T01:56:25.994Z,12.00
2022-10-15T01:59:14.474Z,12.01
2022-10-15T02:02:02.786Z,11.96
2022-10-15T02:04:52.561Z,11.81
2022-10-15T02:07:45.022Z,11.76
2022-10-15T02:10:40.827Z,11.80
2022-10-15T02:13:33.933Z,11.88
2022-10-15T02:16:25.233Z,11.86
2022-10-15T02:19:17.031Z,11.81
2022-10-15T02:22:09.166Z,11.81
2022-10-15T02:24:59.686Z,11.81
2022-10-15T02:27:49.587Z,11.89
2022-10-15T02:30:38.934Z,11.88
2022-10-15T02:33:28.668Z,11.87
2022-10-15T02:36:17.658Z,11.91
2022-10-15T02:39:08.559Z,11.87
2022-10-15T02:41:58.147Z,11.89
2022-10-15T02:44:46.632Z,11.86
2022-10-15T02:47:35.014Z,11.89
2022-10-15T02:50:23.292Z,11.92
2022-10-15T02:53:11.637Z,11.92
2022-10-15T02:56:01.362Z,11.85
2022-10-15T02:58:49.652Z,11.93
2022-10-15T03:01:37.959Z,12.02
2022-10-15T03:04:26.242Z,11.97
2022-10-15T03:07:14.550Z,12.03
2022-10-15T03:10:02.958Z,11.98
2022-10-15T03:12:52.677Z,11.87
2022-10-15T03:15:41.173Z,11.83
2022-10-15T03:18:29.478Z,11.82
2022-10-15T03:21:17.775Z,11.92
2022-10-15T03:24:06.292Z,11.84
2022-10-15T03:26:54.590Z,11.92
2022-10-15T03:29:44.333Z,11.84
2022-10-15T03:32:34.331Z,11.78
2022-10-15T03:35:24.613Z,11.80
2022-10-15T03:38:12.964Z,11.70
2022-10-15T03:41:01.373Z,11.70
2022-10-15T03:43:49.667Z,11.68
2022-10-15T03:46:39.403Z,11.70
2022-10-15T03:49:27.769Z,11.75
2022-10-15T03:52:16.093Z,11.71
2022-10-15T03:55:04.890Z,11.68
2022-10-15T03:57:53.173Z,11.71
2022-10-15T04:00:42.635Z,11.82
2022-10-15T04:03:32.394Z,11.77
2022-10-15T04:06:20.726Z,11.69
2022-10-15T04:09:08.992Z,11.49
2022-10-15T04:11:57.323Z,11.44
2022-10-15T04:14:45.647Z,11.40
2022-10-15T04:17:33.974Z,11.48
2022-10-15T04:20:23.913Z,11.55
2022-10-15T04:23:12.263Z,11.50
2022-10-15T04:26:01.483Z,11.46
2022-10-15T04:28:50.202Z,11.50
2022-10-15T04:31:38.818Z,11.44
2022-10-15T04:34:27.218Z,11.39
2022-10-15T04:37:16.968Z,11.37
2022-10-15T04:40:06.208Z,11.52
2022-10-15T04:42:54.516Z,11.57
2022-10-15T04:45:42.853Z,11.54
2022-10-15T04:48:31.851Z,11.54
2022-10-15T04:51:20.955Z,11.46
2022-10-15T04:54:10.728Z,11.37
2022-10-15T04:56:59.074Z,11.25
2022-10-15T04:59:47.347Z,11.32
2022-10-15T05:02:35.669Z,11.28
2022-10-15T05:05:24.103Z,11.34
2022-10-15T05:08:12.454Z,11.48
2022-10-15T05:11:03.454Z,11.56
2022-10-15T05:13:52.081Z,11.42
2022-10-15T05:16:40.492Z,11.52
2022-10-15T05:19:28.938Z,11.44
2022-10-15T05:22:17.246Z,11.48
2022-10-15T05:25:05.863Z,11.41
2022-10-15T05:27:56.479Z,11.34
2022-10-15T05:30:44.777Z,11.42
2022-10-15T05:33:33.017Z,11.60
2022-10-15T05:36:22.715Z,11.59
2022-10-15T05:39:12.397Z,11.50
2022-10-15T05:42:00.696Z,11.56
2022-10-15T05:44:50.473Z,11.52
2022-10-15T05:47:38.734Z,11.49
2022-10-15T05:50:27.049Z,11.48
2022-10-15T05:53:15.359Z,11.51
2022-10-15T05:56:03.818Z,11.53
2022-10-15T05:58:52.429Z,11.58
2022-10-15T06:01:42.162Z,11.66
2022-10-15T06:04:35.493Z,11.65
2022-10-15T06:07:24.670Z,11.68
2022-10-15T06:10:13.293Z,11.58
2022-10-15T06:13:01.617Z,11.56
2022-10-15T06:15:50.019Z,11.61
2022-10-15T06:18:40.183Z,11.72
2022-10-15T06:21:28.600Z,11.80
2022-10-15T06:24:16.944Z,11.78
2022-10-15T06:27:05.428Z,11.77
2022-10-15T06:29:53.713Z,11.77
2022-10-15T06:32:47.950Z,11.75
2022-10-15T06:35:37.822Z,11.73
2022-10-15T06:38:26.133Z,11.72
2022-10-15T06:41:14.789Z,11.69
2022-10-15T06:44:03.124Z,11.72
2022-10-15T06:46:51.384Z,11.83
2022-10-15T06:49:39.693Z,11.99
2022-10-15T06:52:30.743Z,12.03
2022-10-15T06:55:19.033Z,12.12
2022-10-15T06:58:07.521Z,12.23
2022-10-15T07:01:01.009Z,12.39
2022-10-15T07:03:50.455Z,12.48
2022-10-15T07:06:38.751Z,12.48
2022-10-15T07:09:28.815Z,12.51
2022-10-15T07:12:17.114Z,12.58
2022-10-15T07:15:07.543Z,12.56
2022-10-15T07:17:57.034Z,12.60
2022-10-15T07:20:45.732Z,12.66
2022-10-15T07:23:34.293Z,12.68
2022-10-15T07:26:25.434Z,12.69
2022-10-15T07:29:13.778Z,12.74
2022-10-15T07:32:02.054Z,12.76
2022-10-15T07:34:50.377Z,12.74
2022-10-15T07:37:38.986Z,12.88
2022-10-15T07:40:27.726Z,12.87
2022-10-15T07:43:17.784Z,12.72
2022-10-15T07:46:06.993Z,12.70
2022-10-15T07:48:55.643Z,12.69
2022-10-15T07:51:44.565Z,12.76
2022-10-15T07:54:35.074Z,12.73
2022-10-15T07:57:26.279Z,12.65
2022-10-15T08:00:17.583Z,12.58
2022-10-15T08:03:06.375Z,12.59
2022-10-15T08:05:56.242Z,12.72
2022-10-15T08:08:45.183Z,12.76
2022-10-15T08:11:33.805Z,12.52
2022-10-15T08:14:22.398Z,12.92
2022-10-15T08:17:12.989Z,12.96
2022-10-15T08:20:01.289Z,13.04
2022-10-15T08:22:49.677Z,13.11
2022-10-15T08:25:37.966Z,13.16
2022-10-15T08:28:26.435Z,13.24
2022-10-15T08:31:15.172Z,13.25
2022-10-15T08:34:04.990Z,13.26
2022-10-15T08:36:53.498Z,13.30
2022-10-15T08:39:41.777Z,13.31
2022-10-15T08:42:33.393Z,13.40
2022-10-15T08:45:25.744Z,13.41
2022-10-15T08:48:16.384Z,13.32
2022-10-15T08:51:07.868Z,13.33
2022-10-15T08:53:57.793Z,13.36
2022-10-15T08:56:47.780Z,13.38
2022-10-15T08:59:40.017Z,13.42
2022-10-15T09:02:30.819Z,13.54
2022-10-15T09:05:28.578Z,13.67
2022-10-15T09:08:24.678Z,13.83
2022-10-15T09:11:17.794Z,13.89
2022-10-15T09:14:07.203Z,13.98
2022-10-15T09:16:55.593Z,14.10
2022-10-15T09:19:45.085Z,14.08
2022-10-15T09:22:35.438Z,14.14
2022-10-15T09:25:27.607Z,14.25
2022-10-15T09:28:19.932Z,14.35
2022-10-15T09:31:10.557Z,14.38
2022-10-15T09:34:03.359Z,14.29
2022-10-15T09:36:58.660Z,14.31
2022-10-15T09:39:55.463Z,14.37
2022-10-15T09:42:46.044Z,14.48
2022-10-15T09:45:34.539Z,14.50
2022-10-15T09:48:23.448Z,14.56
2022-10-15T09:51:18.024Z,14.58
2022-10-15T09:54:11.206Z,14.65
2022-10-15T09:56:59.728Z,14.79
2022-10-15T09:59:56.713Z,14.86
2022-10-15T10:02:45.126Z,14.85
2022-10-15T10:05:34.075Z,14.87
2022-10-15T10:08:23.174Z,14.95
2022-10-15T10:11:13.372Z,15.05
2022-10-15T10:14:02.205Z,15.16
2022-10-15T10:19:43.794Z,15.17
2022-10-15T10:22:32.178Z,15.15
2022-10-15T10:25:30.198Z,15.15
2022-10-15T10:28:20.823Z,15.20
2022-10-15T10:31:10.124Z,15.24
2022-10-15T10:34:01.899Z,15.33
2022-10-15T10:36:52.563Z,15.36
2022-10-15T10:39:40.893Z,15.41
2022-10-15T10:42:38.669Z,15.48
2022-10-15T10:45:27.847Z,15.61
2022-10-15T10:48:20.338Z,15.69
2022-10-15T10:51:12.927Z,15.76
2022-10-15T10:54:06.612Z,15.84
2022-10-15T10:56:55.085Z,15.89
2022-10-15T10:59:49.593Z,15.95
2022-10-15T11:02:41.693Z,15.95
2022-10-15T11:05:31.486Z,15.94
2022-10-15T11:08:24.524Z,15.84
2022-10-15T11:11:19.662Z,15.82
2022-10-15T11:14:17.567Z,15.82
2022-10-15T11:17:10.250Z,15.87
2022-10-15T11:23:21.577Z,16.02
2022-10-15T11:26:20.804Z,16.06
2022-10-15T11:29:13.928Z,16.16
2022-10-15T11:32:16.596Z,16.16
2022-10-15T11:35:20.100Z,16.07
2022-10-15T11:38:20.749Z,15.95
2022-10-15T11:41:22.456Z,15.89
2022-10-15T11:44:21.457Z,15.88
2022-10-15T11:47:21.444Z,15.90
2022-10-15T11:50:18.632Z,15.90
2022-10-15T11:53:33.072Z,15.87
2022-10-15T11:56:24.355Z,15.94
2022-10-15T11:59:19.173Z,15.97
2022-10-15T12:02:12.435Z,15.97
2022-10-15T12:05:02.194Z,16.03
2022-10-15T12:07:51.515Z,16.05
2022-10-15T12:10:49.513Z,16.03
2022-10-15T12:13:41.592Z,15.93
2022-10-15T12:16:33.803Z,15.95
2022-10-15T12:19:23.163Z,15.96
2022-10-15T12:22:12.672Z,15.98
2022-10-15T12:25:01.014Z,15.94
2022-10-15T12:28:00.386Z,15.99
2022-10-15T12:31:01.108Z,15.90
2022-10-15T12:33:52.203Z,16.00
2022-10-15T12:36:40.497Z,16.13
2022-10-15T12:42:38.455Z,16.06
2022-10-15T12:45:31.947Z,16.13
2022-10-15T12:48:33.746Z,16.19
2022-10-15T12:51:40.758Z,16.26
2022-10-15T12:54:36.332Z,16.29
2022-10-15T12:57:43.215Z,16.31
2022-10-15T13:00:42.026Z,16.32
2022-10-15T13:03:37.789Z,16.37
2022-10-15T13:06:33.895Z,16.54
2022-10-15T13:09:32.152Z,16.39
2022-10-15T13:12:24.241Z,16.37
2022-10-15T13:15:17.304Z,16.48
2022-10-15T13:18:09.270Z,16.46
2022-10-15T13:20:59.514Z,16.55
2022-10-15T13:23:48.549Z,16.61
2022-10-15T13:26:37.003Z,16.55
2022-10-15T13:29:26.163Z,16.48
2022-10-15T13:32:15.780Z,16.51
2022-10-15T13:35:05.698Z,16.54
2022-10-15T13:37:55.491Z,16.57
2022-10-15T13:40:48.567Z,16.59
2022-10-15T13:43:36.894Z,16.63
2022-10-15T13:46:25.963Z,16.63
2022-10-15T13:49:14.492Z,16.65
2022-10-15T13:52:03.703Z,16.81
2022-10-15T13:54:53.545Z,16.94
2022-10-15T14:00:38.063Z,17.12
2022-10-15T14:03:26.945Z,17.33
2022-10-15T14:06:18.707Z,17.39
2022-10-15T14:09:15.438Z,17.58
2022-10-15T14:12:06.217Z,18.03
2022-10-15T14:14:54.578Z,18.29
2022-10-15T14:17:42.969Z,18.31
2022-10-15T14:20:31.317Z,18.09
2022-10-15T14:23:23.438Z,17.88
2022-10-15T14:26:12.214Z,17.83
2022-10-15T14:29:02.586Z,17.98
2022-10-15T14:31:51.223Z,17.88
2022-10-15T14:34:41.988Z,17.66
2022-10-15T14:37:32.839Z,17.49
2022-10-15T14:40:22.544Z,17.24
2022-10-15T14:43:17.198Z,16.95
2022-10-15T14:46:08.968Z,16.75
2022-10-15T14:48:57.365Z,16.78
2022-10-15T14:51:45.981Z,16.86
2022-10-15T14:54:37.271Z,16.60
2022-10-15T14:57:27.261Z,16.42
2022-10-15T15:00:18.615Z,16.39
2022-10-15T15:03:11.491Z,16.41
2022-10-15T15:05:59.943Z,16.40
2022-10-15T15:08:48.606Z,16.53
2022-10-15T15:11:37.871Z,16.54
2022-10-15T15:14:26.778Z,16.49
2022-10-15T15:17:16.373Z,16.37
2022-10-15T15:20:06.706Z,16.35
2022-10-15T15:22:55.819Z,16.26
2022-10-15T15:25:44.188Z,16.25
2022-10-15T15:28:32.602Z,16.25
2022-10-15T15:31:21.077Z,16.26
2022-10-15T15:34:10.478Z,16.29
2022-10-15T15:37:02.366Z,16.17
2022-10-15T15:39:51.045Z,16.04
2022-10-15T15:42:39.472Z,15.84
2022-10-15T15:45:29.901Z,15.61
2022-10-15T15:48:18.553Z,15.45
2022-10-15T15:51:08.642Z,15.33
2022-10-15T15:53:59.277Z,15.22
2022-10-15T15:56:47.905Z,15.03
2022-10-15T15:59:36.353Z,14.94
2022-10-15T16:02:24.853Z,14.84
2022-10-15T16:05:17.145Z,14.78
2022-10-15T16:08:05.690Z,14.69
2022-10-15T16:10:55.411Z,14.61
2022-10-15T16:13:45.179Z,14.37
2022-10-15T16:16:33.777Z,14.22
2022-10-15T16:19:22.327Z,14.08
2022-10-15T16:22:15.808Z,14.11
2022-10-15T16:25:04.133Z,14.11
2022-10-15T16:27:57.101Z,13.99
2022-10-15T16:30:45.717Z,13.74
2022-10-15T16:33:36.128Z,13.68
2022-10-15T16:36:24.920Z,13.67
2022-10-15T16:39:13.514Z,13.59
2022-10-15T16:42:02.612Z,13.46
2022-10-15T16:44:52.933Z,13.41
2022-10-15T16:47:41.469Z,13.35
2022-10-15T16:50:29.783Z,13.40
2022-10-15T16:53:18.334Z,13.36
2022-10-15T16:56:07.867Z,13.35
2022-10-15T16:58:56.739Z,13.37
2022-10-15T17:01:46.865Z,13.46
2022-10-15T17:04:35.672Z,13.42
2022-10-15T17:07:24.456Z,13.38
2022-10-15T17:10:14.839Z,13.22
2022-10-15T17:13:03.812Z,13.11
2022-10-15T17:15:52.323Z,13.04
2022-10-15T17:18:44.546Z,12.99
2022-10-15T17:21:33.063Z,12.99
2022-10-15T17:24:22.223Z,13.00
2022-10-15T17:27:10.859Z,13.00
2022-10-15T17:29:59.986Z,12.98
2022-10-15T17:32:50.142Z,13.07
2022-10-15T17:35:40.094Z,13.05
2022-10-15T17:38:28.484Z,13.00
2022-10-15T17:41:18.300Z,13.00
2022-10-15T17:44:07.413Z,13.02
2022-10-15T17:46:55.725Z,13.04
2022-10-15T17:49:44.475Z,13.04
2022-10-15T17:52:35.464Z,13.02
2022-10-15T17:55:25.344Z,13.00
2022-10-15T17:58:16.189Z,12.98
2022-10-15T18:01:05.078Z,13.01
2022-10-15T18:03:53.574Z,13.00
2022-10-15T18:06:45.733Z,13.05
2022-10-15T18:09:36.832Z,13.02
2022-10-15T18:12:25.451Z,13.04
2022-10-15T18:15:14.319Z,12.99
2022-10-15T18:18:03.729Z,12.92
2022-10-15T18:20:52.824Z,12.91
2022-10-15T18:23:41.995Z,12.96
2022-10-15T18:26:32.494Z,12.88
2022-10-15T18:29:22.972Z,12.86
2022-10-15T18:32:12.307Z,12.85
2022-10-15T18:35:01.193Z,12.84
2022-10-15T18:37:51.478Z,12.84
2022-10-15T18:40:41.338Z,12.78
2022-10-15T18:43:39.380Z,12.75
2022-10-15T18:46:28.503Z,12.73
2022-10-15T18:49:18.015Z,12.76
2022-10-15T18:52:21.434Z,12.89
2022-10-15T18:55:17.103Z,12.84
2022-10-15T18:58:05.692Z,12.84
2022-10-15T19:00:56.144Z,12.96
2022-10-15T19:03:45.088Z,12.86
2022-10-15T19:06:35.581Z,12.81
2022-10-15T19:09:26.420Z,12.80
2022-10-15T19:12:15.366Z,12.81
2022-10-15T19:15:04.387Z,12.85
2022-10-15T19:17:54.561Z,12.91
2022-10-15T19:20:43.273Z,12.93
2022-10-15T19:23:31.754Z,12.90
2022-10-15T19:26:20.077Z,12.87
2022-10-15T19:29:08.697Z,12.90
2022-10-15T19:31:57.167Z,12.91
2022-10-15T19:34:47.134Z,12.89
2022-10-15T19:37:35.603Z,12.96
2022-10-15T19:40:24.353Z,12.92
2022-10-15T19:43:13.027Z,12.92
2022-10-15T19:46:04.415Z,12.91
2022-10-15T19:48:53.213Z,12.91
2022-10-15T19:51:43.507Z,12.92
2022-10-15T19:54:31.947Z,12.96
2022-10-15T19:57:20.662Z,12.96
2022-10-15T20:00:09.573Z,12.90
2022-10-15T20:02:57.904Z,12.88
2022-10-15T20:05:47.109Z,12.86
2022-10-15T20:08:37.658Z,12.91
2022-10-15T20:11:26.227Z,12.88
2022-10-15T20:14:14.618Z,12.86
2022-10-15T20:17:03.729Z,12.80
2022-10-15T20:19:52.085Z,12.87
2022-10-15T20:22:40.402Z,12.76
2022-10-15T20:25:30.612Z,12.63
2022-10-15T20:28:18.998Z,12.60
2022-10-15T20:31:08.353Z,12.51
2022-10-15T20:33:56.913Z,12.50
2022-10-15T20:36:45.487Z,12.48
2022-10-15T20:39:33.874Z,12.47
2022-10-15T20:42:23.907Z,12.51
2022-10-15T20:45:14.791Z,12.51
2022-10-15T20:48:04.324Z,12.39
2022-10-15T20:50:54.601Z,12.32
2022-10-15T20:53:43.653Z,12.29
2022-10-15T20:56:32.105Z,12.25
2022-10-15T20:59:24.291Z,12.26
2022-10-15T21:02:15.048Z,12.24
2022-10-15T21:05:03.403Z,12.23
2022-10-15T21:07:51.778Z,12.21
2022-10-15T21:10:40.102Z,12.22
2022-10-15T21:13:28.438Z,12.23
2022-10-15T21:16:18.256Z,12.22
2022-10-15T21:19:06.663Z,12.19
2022-10-15T21:21:55.005Z,12.21
2022-10-15T21:24:43.333Z,12.21
2022-10-15T21:27:31.731Z,12.19
2022-10-15T21:30:20.314Z,12.17
2022-10-15T21:33:10.256Z,12.21
2022-10-15T21:35:58.525Z,12.21
2022-10-15T21:38:46.913Z,12.22
2022-10-15T21:41:36.251Z,12.22
2022-10-15T21:44:24.727Z,12.27
2022-10-15T21:47:15.285Z,12.28
2022-10-15T21:50:05.465Z,12.24
2022-10-15T21:52:53.820Z,12.22
2022-10-15T21:55:42.157Z,12.26
2022-10-15T21:58:30.430Z,12.27
2022-10-15T22:01:21.009Z,12.22
2022-10-15T22:04:10.142Z,12.26
2022-10-15T22:07:00.012Z,12.27
2022-10-15T22:09:48.815Z,12.29
2022-10-15T22:12:37.131Z,12.27
2022-10-15T22:15:27.687Z,12.30
2022-10-15T22:18:16.026Z,12.36
2022-10-15T22:21:15.917Z,12.31
2022-10-15T22:24:08.251Z,12.26
2022-10-15T22:26:56.587Z,12.23
2022-10-15T22:29:45.030Z,12.22
2022-10-15T22:32:33.326Z,12.17
2022-10-15T22:35:22.021Z,12.17
2022-10-15T22:38:10.306Z,12.19
2022-10-15T22:41:01.869Z,12.16
2022-10-15T22:43:50.206Z,12.13
2022-10-15T22:46:40.185Z,12.13
2022-10-15T22:49:28.481Z,12.13
2022-10-15T22:52:16.781Z,12.14
2022-10-15T22:55:05.237Z,12.19
2022-10-15T22:57:54.991Z,12.29
2022-10-15T23:00:43.342Z,12.25
2022-10-15T23:03:31.643Z,12.11
2022-10-15T23:06:20.365Z,12.03
2022-10-15T23:09:09.156Z,12.05
2022-10-15T23:11:57.447Z,11.98
2022-10-15T23:14:48.831Z,11.96
2022-10-15T23:17:37.115Z,11.93
2022-10-15T23:20:25.452Z,11.93
2022-10-15T23:23:13.752Z,11.97
2022-10-15T23:26:02.082Z,12.03
2022-10-15T23:28:52.038Z,12.00
2022-10-15T23:31:41.791Z,11.91
2022-10-15T23:34:30.112Z,11.88
2022-10-15T23:37:18.742Z,11.90
2022-10-15T23:40:07.667Z,11.82
2022-10-15T23:42:56.017Z,11.84
2022-10-15T23:45:44.316Z,11.84
2022-10-15T23:48:34.122Z,11.87
2022-10-15T23:51:23.764Z,11.91
2022-10-15T23:54:13.811Z,11.91
2022-10-15T23:57:02.098Z,11.94
2022-10-15T23:59:50.453Z,11.90
